createdAt,value
2023-01-01T00:00:43.495Z,6.17
2023-01-01T00:01:47.212Z,6.60
2023-01-01T00:02:48.963Z,6.70
2023-01-01T00:03:55.581Z,5.60
2023-01-01T00:04:57.525Z,3.67
2023-01-01T00:05:59.291Z,3.70
2023-01-01T00:07:01.358Z,2.57
2023-01-01T00:08:05.215Z,4.67
2023-01-01T00:09:26.508Z,4.33
2023-01-01T00:10:28.218Z,7.37
2023-01-01T00:11:29.962Z,5.47
2023-01-01T00:12:47.283Z,4.60
2023-01-01T00:13:50.017Z,6.50
2023-01-01T00:14:51.821Z,4.67
2023-01-01T00:15:53.683Z,5.37
2023-01-01T00:16:56.452Z,4.40
2023-01-01T00:18:01.991Z,4.17
2023-01-01T00:19:03.962Z,5.37
2023-01-01T00:20:06.886Z,5.87
2023-01-01T00:21:17.659Z,4.77
2023-01-01T00:23:42.262Z,3.50
2023-01-01T00:24:44.032Z,2.97
2023-01-01T00:25:48.283Z,3.20
2023-01-01T00:26:50.144Z,2.90
2023-01-01T00:27:52.235Z,2.87
2023-01-01T00:28:56.498Z,3.37
2023-01-01T00:29:58.357Z,3.07
2023-01-01T00:31:00.267Z,3.90
2023-01-01T00:32:02.217Z,3.63
2023-01-01T00:33:04.206Z,3.10
2023-01-01T00:34:07.260Z,2.87
2023-01-01T00:35:09.888Z,2.80
2023-01-01T00:36:14.138Z,1.87
2023-01-01T00:37:17.459Z,2.27
2023-01-01T00:38:19.380Z,3.03
2023-01-01T00:39:21.104Z,3.10
2023-01-01T00:40:23.475Z,2.97
2023-01-01T00:41:25.415Z,3.43
2023-01-01T00:42:27.451Z,3.00
2023-01-01T00:43:29.405Z,1.93
2023-01-01T00:44:31.177Z,2.07
2023-01-01T00:45:36.816Z,2.70
2023-01-01T00:46:38.555Z,2.97
2023-01-01T00:47:40.381Z,3.50
2023-01-01T00:48:42.332Z,2.87
2023-01-01T00:49:43.972Z,2.70
2023-01-01T00:50:45.838Z,3.03
2023-01-01T00:51:47.680Z,5.17
2023-01-01T00:52:50.508Z,3.63
2023-01-01T00:53:52.223Z,4.80
2023-01-01T00:54:55.254Z,2.87
2023-01-01T00:55:57.188Z,2.10
2023-01-01T00:56:58.800Z,2.10
2023-01-01T00:58:00.613Z,2.17
2023-01-01T00:59:03.129Z,2.13
2023-01-01T01:00:06.271Z,2.83
2023-01-01T01:01:08.134Z,2.53
2023-01-01T01:02:10.020Z,1.87
2023-01-01T01:03:28.101Z,1.80
2023-01-01T01:04:30.049Z,2.17
2023-01-01T01:05:32.933Z,1.83
2023-01-01T01:06:35.244Z,1.63
2023-01-01T01:07:39.981Z,2.00
2023-01-01T01:08:49.279Z,3.47
2023-01-01T01:09:51.742Z,1.60
2023-01-01T01:10:53.922Z,1.60
2023-01-01T01:12:17.712Z,2.17
2023-01-01T01:13:17.347Z,2.20
2023-01-01T01:14:18.959Z,2.87
2023-01-01T01:15:21.304Z,2.20
2023-01-01T01:16:26.529Z,2.10
2023-01-01T01:17:29.800Z,2.30
2023-01-01T01:18:31.516Z,2.20
2023-01-01T01:19:33.543Z,2.07
2023-01-01T01:20:35.427Z,1.67
2023-01-01T01:21:37.917Z,1.63
2023-01-01T01:22:40.822Z,1.70
2023-01-01T01:23:42.533Z,1.83
2023-01-01T01:24:44.516Z,1.80
2023-01-01T01:25:47.856Z,2.03
2023-01-01T01:26:49.420Z,2.30
2023-01-01T01:27:52.385Z,1.50
2023-01-01T01:28:55.988Z,1.67
2023-01-01T01:29:57.549Z,1.73
2023-01-01T01:31:00.339Z,1.70
2023-01-01T01:32:02.087Z,1.50
2023-01-01T01:33:03.963Z,1.70
2023-01-01T01:34:08.654Z,1.80
2023-01-01T01:35:12.541Z,2.30
2023-01-01T01:36:17.442Z,1.97
2023-01-01T01:37:19.176Z,1.60
2023-01-01T01:38:21.120Z,1.90
2023-01-01T01:39:24.864Z,2.40
2023-01-01T01:40:26.441Z,1.83
2023-01-01T01:41:29.248Z,1.70
2023-01-01T01:42:31.108Z,1.77
2023-01-01T01:43:32.843Z,1.70
2023-01-01T01:44:47.119Z,1.97
2023-01-01T01:45:50.149Z,1.70
2023-01-01T01:46:51.949Z,1.60
2023-01-01T01:47:56.832Z,2.10
2023-01-01T01:49:14.879Z,1.43
2023-01-01T01:50:27.930Z,2.40
2023-01-01T01:51:38.546Z,2.00
2023-01-01T01:52:46.158Z,1.90
2023-01-01T01:53:52.448Z,2.00
2023-01-01T01:54:55.167Z,1.90
2023-01-01T01:56:01.520Z,1.73
2023-01-01T01:57:07.958Z,1.73
2023-01-01T01:58:12.583Z,1.90
2023-01-01T01:59:16.134Z,1.90
2023-01-01T02:00:18.096Z,2.10
2023-01-01T02:01:21.043Z,1.73
2023-01-01T02:02:26.840Z,2.37
2023-01-01T02:03:47.871Z,1.73
2023-01-01T02:04:50.359Z,1.87
2023-01-01T02:05:52.379Z,1.70
2023-01-01T02:06:55.311Z,2.40
2023-01-01T02:08:00.689Z,1.57
2023-01-01T02:09:05.913Z,1.93
2023-01-01T02:10:07.990Z,1.93
2023-01-01T02:11:11.126Z,2.80
2023-01-01T02:12:15.999Z,2.10
2023-01-01T02:13:20.574Z,1.70
2023-01-01T02:14:22.595Z,2.20
2023-01-01T02:15:30.337Z,2.40
2023-01-01T02:16:38.058Z,2.10
2023-01-01T02:17:46.035Z,2.00
2023-01-01T02:18:53.399Z,2.37
2023-01-01T02:20:05.062Z,2.43
2023-01-01T02:21:14.738Z,2.17
2023-01-01T02:22:32.355Z,2.03
2023-01-01T02:23:53.301Z,2.67
2023-01-01T02:25:28.591Z,2.30
2023-01-01T02:26:39.062Z,2.20
2023-01-01T02:28:39.891Z,1.93
2023-01-01T02:30:00.512Z,2.40
2023-01-01T02:31:04.752Z,2.80
2023-01-01T02:32:09.361Z,2.23
2023-01-01T02:33:21.526Z,1.90
2023-01-01T02:34:28.779Z,2.47
2023-01-01T02:35:39.336Z,2.37
2023-01-01T02:36:48.606Z,2.30
2023-01-01T02:37:53.914Z,2.03
2023-01-01T02:38:58.234Z,2.20
2023-01-01T02:40:08.789Z,2.23
2023-01-01T02:41:20.047Z,2.40
2023-01-01T02:42:26.500Z,2.07
2023-01-01T02:43:28.953Z,2.37
2023-01-01T02:44:34.858Z,2.10
2023-01-01T02:45:37.064Z,1.90
2023-01-01T02:46:39.010Z,1.90
2023-01-01T02:47:41.253Z,2.03
2023-01-01T02:48:53.847Z,2.00
2023-01-01T02:50:10.672Z,1.80
2023-01-01T02:51:36.999Z,2.00
2023-01-01T02:52:45.446Z,2.00
2023-01-01T02:54:01.653Z,1.80
2023-01-01T02:55:19.641Z,1.53
2023-01-01T02:56:36.167Z,1.83
2023-01-01T02:57:52.896Z,1.83
2023-01-01T02:59:31.163Z,1.57
2023-01-01T03:00:35.446Z,1.90
2023-01-01T03:02:21.653Z,1.60
2023-01-01T03:03:38.547Z,1.80
2023-01-01T03:05:03.750Z,1.50
2023-01-01T03:06:34.307Z,1.53
2023-01-01T03:07:51.433Z,1.70
2023-01-01T03:09:05.560Z,1.70
2023-01-01T03:10:19.352Z,1.60
2023-01-01T03:11:24.422Z,1.63
2023-01-01T03:12:43.483Z,1.10
2023-01-01T03:13:58.681Z,1.70
2023-01-01T03:15:07.142Z,1.60
2023-01-01T03:16:41.512Z,1.60
2023-01-01T03:18:02.262Z,1.70
2023-01-01T03:19:15.537Z,1.37
2023-01-01T03:20:28.582Z,2.00
2023-01-01T03:21:30.898Z,1.57
2023-01-01T03:23:49.884Z,1.40
2023-01-01T03:24:56.739Z,1.33
2023-01-01T03:26:02.918Z,1.50
2023-01-01T03:27:09.755Z,1.60
2023-01-01T03:28:27.891Z,1.37
2023-01-01T03:29:33.629Z,1.73
2023-01-01T03:30:37.908Z,1.67
2023-01-01T03:31:43.767Z,1.37
2023-01-01T03:33:09.068Z,1.80
2023-01-01T03:34:17.385Z,1.70
2023-01-01T03:35:21.743Z,1.40
2023-01-01T03:36:31.051Z,1.90
2023-01-01T03:37:33.446Z,1.27
2023-01-01T03:38:37.870Z,1.77
2023-01-01T03:39:47.399Z,1.70
2023-01-01T03:40:53.996Z,1.87
2023-01-01T03:42:10.167Z,1.37
2023-01-01T03:43:22.263Z,1.37
2023-01-01T03:44:35.342Z,1.53
2023-01-01T03:45:41.229Z,1.60
2023-01-01T03:46:43.301Z,1.30
2023-01-01T03:47:46.152Z,1.90
2023-01-01T03:49:02.738Z,1.40
2023-01-01T03:50:06.737Z,2.10
2023-01-01T03:51:21.625Z,1.43
2023-01-01T03:52:28.854Z,1.73
2023-01-01T03:53:42.035Z,1.73
2023-01-01T03:54:59.615Z,1.70
2023-01-01T03:56:22.214Z,1.83
2023-01-01T03:57:52.366Z,1.57
2023-01-01T03:59:18.319Z,1.67
2023-01-01T04:00:23.697Z,1.63
2023-01-01T04:01:37.867Z,1.30
2023-01-01T04:02:46.535Z,1.80
2023-01-01T04:03:49.769Z,1.90
2023-01-01T04:04:51.556Z,1.60
2023-01-01T04:05:53.516Z,1.17
2023-01-01T04:06:55.791Z,1.47
2023-01-01T04:08:01.954Z,1.70
2023-01-01T04:09:08.068Z,1.30
2023-01-01T04:10:19.338Z,1.70
2023-01-01T04:11:43.554Z,1.20
2023-01-01T04:12:52.236Z,1.60
2023-01-01T04:13:53.884Z,1.60
2023-01-01T04:14:55.588Z,1.73
2023-01-01T04:15:57.235Z,2.10
2023-01-01T04:16:59.974Z,1.43
2023-01-01T04:18:02.322Z,1.83
2023-01-01T04:19:07.105Z,1.60
2023-01-01T04:20:09.564Z,1.67
2023-01-01T04:21:12.555Z,1.57
2023-01-01T04:22:14.201Z,1.73
2023-01-01T04:23:15.795Z,1.50
2023-01-01T04:24:17.467Z,1.20
2023-01-01T04:25:19.002Z,1.43
2023-01-01T04:26:20.654Z,1.40
2023-01-01T04:27:22.287Z,1.47
2023-01-01T04:28:23.951Z,2.40
2023-01-01T04:29:25.741Z,2.07
2023-01-01T04:30:28.281Z,1.80
2023-01-01T04:31:29.917Z,1.57
2023-01-01T04:32:31.530Z,1.43
2023-01-01T04:33:33.209Z,1.77
2023-01-01T04:34:34.854Z,1.40
2023-01-01T04:35:36.841Z,1.17
2023-01-01T04:36:39.017Z,1.40
2023-01-01T04:37:43.090Z,1.80
2023-01-01T04:38:44.805Z,1.53
2023-01-01T04:39:46.473Z,1.43
2023-01-01T04:40:57.992Z,1.50
2023-01-01T04:41:59.588Z,1.30
2023-01-01T04:43:01.100Z,1.40
2023-01-01T04:44:03.060Z,2.40
2023-01-01T04:45:04.997Z,2.37
2023-01-01T04:46:06.625Z,1.30
2023-01-01T04:47:08.574Z,1.53
2023-01-01T04:48:10.141Z,1.83
2023-01-01T04:49:11.797Z,1.30
2023-01-01T04:50:13.518Z,1.10
2023-01-01T04:51:17.927Z,1.10
2023-01-01T04:52:19.725Z,1.47
2023-01-01T04:53:21.290Z,2.00
2023-01-01T04:54:22.950Z,1.40
2023-01-01T04:55:24.584Z,1.30
2023-01-01T04:56:26.173Z,1.60
2023-01-01T04:57:30.536Z,1.97
2023-01-01T04:58:33.376Z,1.33
2023-01-01T04:59:35.061Z,1.63
2023-01-01T05:00:36.820Z,2.20
2023-01-01T05:01:38.731Z,1.50
2023-01-01T05:02:40.514Z,1.73
2023-01-01T05:03:42.237Z,1.20
2023-01-01T05:04:43.882Z,1.40
2023-01-01T05:05:51.095Z,1.30
2023-01-01T05:06:53.198Z,1.57
2023-01-01T05:07:54.745Z,1.63
2023-01-01T05:08:57.601Z,1.70
2023-01-01T05:09:59.181Z,3.20
2023-01-01T05:11:07.437Z,1.50
2023-01-01T05:12:09.157Z,1.93
2023-01-01T05:13:10.748Z,1.90
2023-01-01T05:14:12.476Z,1.50
2023-01-01T05:15:14.213Z,1.40
2023-01-01T05:16:19.044Z,1.60
2023-01-01T05:17:20.706Z,1.53
2023-01-01T05:18:22.708Z,1.20
2023-01-01T05:19:24.294Z,1.33
2023-01-01T05:20:26.392Z,1.63
2023-01-01T05:21:33.412Z,1.87
2023-01-01T05:22:35.022Z,1.77
2023-01-01T05:23:36.847Z,1.63
2023-01-01T05:24:38.521Z,1.37
2023-01-01T05:25:40.100Z,1.00
2023-01-01T05:26:44.249Z,1.53
2023-01-01T05:27:45.802Z,1.57
2023-01-01T05:28:47.957Z,1.87
2023-01-01T05:29:49.727Z,1.77
2023-01-01T05:30:52.683Z,1.93
2023-01-01T05:31:54.319Z,1.70
2023-01-01T05:32:55.965Z,1.80
2023-01-01T05:34:59.628Z,1.50
2023-01-01T05:36:01.779Z,1.77
2023-01-01T05:37:03.350Z,1.57
2023-01-01T05:38:05.110Z,1.60
2023-01-01T05:39:12.521Z,1.67
2023-01-01T05:40:14.250Z,1.60
2023-01-01T05:41:17.030Z,1.90
2023-01-01T05:42:20.536Z,1.73
2023-01-01T05:43:22.429Z,1.80
2023-01-01T05:44:24.112Z,2.00
2023-01-01T05:45:25.705Z,1.67
2023-01-01T05:46:29.382Z,2.00
2023-01-01T05:47:31.214Z,2.00
2023-01-01T05:48:34.828Z,1.77
2023-01-01T05:49:36.533Z,2.23
2023-01-01T05:50:38.081Z,1.57
2023-01-01T05:52:40.430Z,2.10
2023-01-01T05:53:42.602Z,1.63
2023-01-01T05:54:44.232Z,1.87
2023-01-01T05:55:52.839Z,2.07
2023-01-01T05:56:54.427Z,1.80
2023-01-01T05:57:56.085Z,2.00
2023-01-01T05:58:57.665Z,3.33
2023-01-01T05:59:59.318Z,1.93
2023-01-01T06:01:16.111Z,2.20
2023-01-01T06:02:17.838Z,1.90
2023-01-01T06:03:19.473Z,1.77
2023-01-01T06:04:21.099Z,1.80
2023-01-01T06:05:22.634Z,1.70
2023-01-01T06:06:28.997Z,2.10
2023-01-01T06:07:30.709Z,1.60
2023-01-01T06:08:32.430Z,1.67
2023-01-01T06:09:34.083Z,2.00
2023-01-01T06:10:35.935Z,1.67
2023-01-01T06:11:37.807Z,2.03
2023-01-01T06:12:39.409Z,1.73
2023-01-01T06:13:44.101Z,3.73
2023-01-01T06:14:45.773Z,1.50
2023-01-01T06:15:54.246Z,1.80
2023-01-01T06:16:55.890Z,1.77
2023-01-01T06:18:00.343Z,1.60
2023-01-01T06:19:02.133Z,1.93
2023-01-01T06:20:04.412Z,2.13
2023-01-01T06:21:10.915Z,1.73
2023-01-01T06:22:12.528Z,1.80
2023-01-01T06:23:14.283Z,1.97
2023-01-01T06:24:16.138Z,1.67
2023-01-01T06:25:17.747Z,1.83
2023-01-01T06:26:22.116Z,2.30
2023-01-01T06:27:23.670Z,1.43
2023-01-01T06:28:25.456Z,2.03
2023-01-01T06:29:27.178Z,1.47
2023-01-01T06:30:28.813Z,1.50
2023-01-01T06:31:35.609Z,2.00
2023-01-01T06:32:40.142Z,1.80
2023-01-01T06:33:42.257Z,2.20
2023-01-01T06:34:44.044Z,2.70
2023-01-01T06:35:45.580Z,1.80
2023-01-01T06:36:47.344Z,2.20
2023-01-01T06:37:48.995Z,2.53
2023-01-01T06:38:53.221Z,2.10
2023-01-01T06:39:54.977Z,2.20
2023-01-01T06:41:04.139Z,1.70
2023-01-01T06:42:05.817Z,2.10
2023-01-01T06:43:07.440Z,2.00
2023-01-01T06:44:09.100Z,1.60
2023-01-01T06:45:11.076Z,2.00
2023-01-01T06:46:29.604Z,1.83
2023-01-01T06:47:34.276Z,1.90
2023-01-01T06:48:36.908Z,2.73
2023-01-01T06:49:38.952Z,2.27
2023-01-01T06:50:40.544Z,1.70
2023-01-01T06:51:43.765Z,1.63
2023-01-01T06:52:47.507Z,2.27
2023-01-01T06:53:49.910Z,1.73
2023-01-01T06:54:51.517Z,2.30
2023-01-01T06:55:57.421Z,2.13
2023-01-01T06:56:59.233Z,1.70
2023-01-01T06:58:00.755Z,1.63
2023-01-01T06:59:02.689Z,2.13
2023-01-01T07:00:05.453Z,1.90
2023-01-01T07:01:18.595Z,2.07
2023-01-01T07:02:20.490Z,1.90
2023-01-01T07:03:25.184Z,2.20
2023-01-01T07:04:26.901Z,2.00
2023-01-01T07:05:28.712Z,1.47
2023-01-01T07:06:32.987Z,1.87
2023-01-01T07:07:36.168Z,1.93
2023-01-01T07:08:38.388Z,1.90
2023-01-01T07:09:40.092Z,2.30
2023-01-01T07:10:41.777Z,2.10
2023-01-01T07:11:43.882Z,2.27
2023-01-01T07:12:45.481Z,1.70
2023-01-01T07:13:47.102Z,2.10
2023-01-01T07:14:48.807Z,1.60
2023-01-01T07:15:50.431Z,1.90
2023-01-01T07:16:52.206Z,2.30
2023-01-01T07:17:53.992Z,2.00
2023-01-01T07:18:57.836Z,2.20
2023-01-01T07:20:01.712Z,2.20
2023-01-01T07:21:04.762Z,1.90
2023-01-01T07:22:06.611Z,1.70
2023-01-01T07:23:11.292Z,2.07
2023-01-01T07:24:15.467Z,1.73
2023-01-01T07:25:17.246Z,2.53
2023-01-01T07:26:18.969Z,2.47
2023-01-01T07:27:20.578Z,2.00
2023-01-01T07:28:23.729Z,2.00
2023-01-01T07:29:25.339Z,1.80
2023-01-01T07:30:27.067Z,1.80
2023-01-01T07:31:28.787Z,1.93
2023-01-01T07:32:30.356Z,1.93
2023-01-01T07:33:31.963Z,1.50
2023-01-01T07:34:34.196Z,1.73
2023-01-01T07:35:36.083Z,2.17
2023-01-01T07:36:38.445Z,2.10
2023-01-01T07:37:40.033Z,1.80
2023-01-01T07:38:41.737Z,1.90
2023-01-01T07:39:43.391Z,1.80
2023-01-01T07:40:45.102Z,1.97
2023-01-01T07:41:46.691Z,1.70
2023-01-01T07:42:48.274Z,1.90
2023-01-01T07:43:49.989Z,1.73
2023-01-01T07:44:51.801Z,2.10
2023-01-01T07:45:53.897Z,1.70
2023-01-01T07:47:09.677Z,2.17
2023-01-01T07:48:15.417Z,1.50
2023-01-01T07:49:18.481Z,1.80
2023-01-01T07:50:20.948Z,1.93
2023-01-01T07:51:22.749Z,1.73
2023-01-01T07:52:27.101Z,2.13
2023-01-01T07:53:28.654Z,2.00
2023-01-01T07:54:30.255Z,2.20
2023-01-01T07:55:36.915Z,1.90
2023-01-01T07:56:38.996Z,1.60
2023-01-01T07:57:41.754Z,2.40
2023-01-01T07:58:43.477Z,2.10
2023-01-01T07:59:45.078Z,1.73
2023-01-01T08:00:48.699Z,1.23
2023-01-01T08:01:50.951Z,1.87
2023-01-01T08:02:52.905Z,1.93
2023-01-01T08:03:54.895Z,2.00
2023-01-01T08:04:56.980Z,1.60
2023-01-01T08:05:58.659Z,1.77
2023-01-01T08:07:00.576Z,1.53
2023-01-01T08:08:02.224Z,2.07
2023-01-01T08:09:04.054Z,1.90
2023-01-01T08:10:11.029Z,2.27
2023-01-01T08:11:12.644Z,2.80
2023-01-01T08:12:14.395Z,1.87
2023-01-01T08:13:16.121Z,2.00
2023-01-01T08:14:17.753Z,2.00
2023-01-01T08:15:19.573Z,2.03
2023-01-01T08:16:22.678Z,2.20
2023-01-01T08:17:24.485Z,1.67
2023-01-01T08:18:26.772Z,2.43
2023-01-01T08:19:28.337Z,1.77
2023-01-01T08:21:50.632Z,1.93
2023-01-01T08:22:52.679Z,2.13
2023-01-01T08:23:54.362Z,2.63
2023-01-01T08:24:56.020Z,2.50
2023-01-01T08:26:02.268Z,2.00
2023-01-01T08:27:03.891Z,1.60
2023-01-01T08:28:05.560Z,2.03
2023-01-01T08:29:08.457Z,2.30
2023-01-01T08:30:12.769Z,1.60
2023-01-01T08:31:14.599Z,1.80
2023-01-01T08:32:16.248Z,1.90
2023-01-01T08:33:19.102Z,2.13
2023-01-01T08:34:20.881Z,1.70
2023-01-01T08:35:24.620Z,1.60
2023-01-01T08:36:26.425Z,2.13
2023-01-01T08:37:28.056Z,1.97
2023-01-01T08:38:29.686Z,1.97
2023-01-01T08:39:31.362Z,2.40
2023-01-01T08:40:33.962Z,2.43
2023-01-01T08:41:35.599Z,2.10
2023-01-01T08:42:37.349Z,1.77
2023-01-01T08:43:39.010Z,1.50
2023-01-01T08:44:43.068Z,2.20
2023-01-01T08:45:45.597Z,7.07
2023-01-01T08:46:47.378Z,2.20
2023-01-01T08:47:49.075Z,2.00
2023-01-01T08:48:50.810Z,1.90
2023-01-01T08:49:55.912Z,2.43
2023-01-01T08:51:02.738Z,2.13
2023-01-01T08:52:07.495Z,2.10
2023-01-01T08:53:09.052Z,2.50
2023-01-01T08:54:10.666Z,2.10
2023-01-01T08:55:12.367Z,2.40
2023-01-01T08:56:15.970Z,2.27
2023-01-01T08:57:17.820Z,2.37
2023-01-01T08:58:19.775Z,1.73
2023-01-01T08:59:21.805Z,2.00
2023-01-01T09:00:24.558Z,2.03
2023-01-01T09:01:28.400Z,2.80
2023-01-01T09:02:31.962Z,2.37
2023-01-01T09:03:35.396Z,1.97
2023-01-01T09:04:37.373Z,2.60
2023-01-01T09:05:45.803Z,2.10
2023-01-01T09:06:49.698Z,1.80
2023-01-01T09:07:52.866Z,2.27
2023-01-01T09:08:55.587Z,2.33
2023-01-01T09:09:57.456Z,1.70
2023-01-01T09:11:03.749Z,2.30
2023-01-01T09:12:07.303Z,2.00
2023-01-01T09:13:14.095Z,1.93
2023-01-01T09:14:15.785Z,2.20
2023-01-01T09:15:17.712Z,2.40
2023-01-01T09:16:20.046Z,1.90
2023-01-01T09:17:22.246Z,2.20
2023-01-01T09:18:25.092Z,1.80
2023-01-01T09:19:30.043Z,2.70
2023-01-01T09:20:32.210Z,2.07
2023-01-01T09:21:34.014Z,2.53
2023-01-01T09:22:38.575Z,1.80
2023-01-01T09:23:40.642Z,2.20
2023-01-01T09:24:42.461Z,2.77
2023-01-01T09:25:44.345Z,1.80
2023-01-01T09:26:47.183Z,2.40
2023-01-01T09:27:48.923Z,2.17
2023-01-01T09:28:50.778Z,2.40
2023-01-01T09:29:54.766Z,1.90
2023-01-01T09:30:56.634Z,2.70
2023-01-01T09:31:58.516Z,2.20
2023-01-01T09:33:00.153Z,2.07
2023-01-01T09:34:01.979Z,2.20
2023-01-01T09:35:04.005Z,2.33
2023-01-01T09:36:21.261Z,2.23
2023-01-01T09:37:24.223Z,3.37
2023-01-01T09:38:25.962Z,2.20
2023-01-01T09:39:28.313Z,2.57
2023-01-01T09:40:56.458Z,2.50
2023-01-01T09:42:19.763Z,2.23
2023-01-01T09:43:27.903Z,2.30
2023-01-01T09:44:44.895Z,2.23
2023-01-01T09:46:06.646Z,2.47
2023-01-01T09:47:22.255Z,1.67
2023-01-01T09:48:26.739Z,2.77
2023-01-01T09:49:43.282Z,2.27
2023-01-01T09:50:47.023Z,2.20
2023-01-01T09:51:58.126Z,2.17
2023-01-01T09:53:03.672Z,2.43
2023-01-01T09:54:16.223Z,2.53
2023-01-01T09:55:47.797Z,3.07
2023-01-01T09:56:55.998Z,2.60
2023-01-01T09:57:58.289Z,2.30
2023-01-01T09:59:00.277Z,2.30
2023-01-01T10:00:02.060Z,3.10
2023-01-01T10:01:16.114Z,2.87
2023-01-01T10:02:24.011Z,2.83
2023-01-01T10:03:37.975Z,2.30
2023-01-01T10:04:39.673Z,2.33
2023-01-01T10:06:01.515Z,2.33
2023-01-01T10:07:20.451Z,2.00
2023-01-01T10:08:37.364Z,1.83
2023-01-01T10:10:00.044Z,2.30
2023-01-01T10:11:04.651Z,2.53
2023-01-01T10:12:25.096Z,2.67
2023-01-01T10:13:39.040Z,2.73
2023-01-01T10:14:57.896Z,1.60
2023-01-01T10:16:10.601Z,2.00
2023-01-01T10:17:20.222Z,2.60
2023-01-01T10:18:26.112Z,2.93
2023-01-01T10:19:37.991Z,2.33
2023-01-01T10:20:46.469Z,2.47
2023-01-01T10:21:51.050Z,2.73
2023-01-01T10:22:57.928Z,2.50
2023-01-01T10:24:09.835Z,1.80
2023-01-01T10:25:19.851Z,2.60
2023-01-01T10:26:25.409Z,2.80
2023-01-01T10:27:36.087Z,1.87
2023-01-01T10:28:54.920Z,1.83
2023-01-01T10:30:03.434Z,2.73
2023-01-01T10:31:28.073Z,2.53
2023-01-01T10:32:35.968Z,2.37
2023-01-01T10:33:38.045Z,2.67
2023-01-01T10:34:39.985Z,2.67
2023-01-01T10:35:49.779Z,2.57
2023-01-01T10:36:57.724Z,2.50
2023-01-01T10:38:01.034Z,2.30
2023-01-01T10:39:03.284Z,3.13
2023-01-01T10:40:16.847Z,2.00
2023-01-01T10:41:20.164Z,2.63
2023-01-01T10:42:22.028Z,2.40
2023-01-01T10:43:23.683Z,2.30
2023-01-01T10:44:34.511Z,2.97
2023-01-01T10:45:44.344Z,2.57
2023-01-01T10:46:54.949Z,2.23
2023-01-01T10:48:19.805Z,2.40
2023-01-01T10:49:21.657Z,2.10
2023-01-01T10:50:42.640Z,2.23
2023-01-01T10:51:52.778Z,2.50
2023-01-01T10:52:57.616Z,2.47
2023-01-01T10:53:59.744Z,1.60
2023-01-01T10:55:01.803Z,2.47
2023-01-01T10:56:13.688Z,2.93
2023-01-01T10:57:27.593Z,2.83
2023-01-01T10:58:41.326Z,2.77
2023-01-01T10:59:48.311Z,2.70
2023-01-01T11:01:01.715Z,2.50
2023-01-01T11:02:23.056Z,2.23
2023-01-01T11:03:24.967Z,2.53
2023-01-01T11:04:26.751Z,2.87
2023-01-01T11:05:28.501Z,2.10
2023-01-01T11:06:43.236Z,1.60
2023-01-01T11:07:45.367Z,2.70
2023-01-01T11:08:50.117Z,2.20
2023-01-01T11:10:03.225Z,2.33
2023-01-01T11:11:06.019Z,2.87
2023-01-01T11:12:45.964Z,2.07
2023-01-01T11:13:40.605Z,2.13
2023-01-01T11:14:49.318Z,2.93
2023-01-01T11:15:51.762Z,2.93
2023-01-01T11:16:54.724Z,2.77
2023-01-01T11:18:04.855Z,2.13
2023-01-01T11:19:08.618Z,2.43
2023-01-01T11:20:18.758Z,2.00
2023-01-01T11:21:24.344Z,2.43
2023-01-01T11:22:52.930Z,2.33
2023-01-01T11:24:20.361Z,2.87
2023-01-01T11:25:25.421Z,2.00
2023-01-01T11:26:27.766Z,2.90
2023-01-01T11:27:29.535Z,2.50
2023-01-01T11:28:35.064Z,2.13
2023-01-01T11:29:37.256Z,1.60
2023-01-01T11:30:39.736Z,2.17
2023-01-01T11:31:43.368Z,2.20
2023-01-01T11:32:48.164Z,2.67
2023-01-01T11:33:55.573Z,2.50
2023-01-01T11:35:06.503Z,2.40
2023-01-01T11:36:08.627Z,1.80
2023-01-01T11:37:27.686Z,2.40
2023-01-01T11:38:30.634Z,1.80
2023-01-01T11:39:37.330Z,1.83
2023-01-01T11:40:46.394Z,3.03
2023-01-01T11:41:50.932Z,2.20
2023-01-01T11:42:58.308Z,1.70
2023-01-01T11:44:00.706Z,2.23
2023-01-01T11:45:19.205Z,2.77
2023-01-01T11:46:24.823Z,2.33
2023-01-01T11:47:29.429Z,2.43
2023-01-01T11:48:33.895Z,2.37
2023-01-01T11:49:35.831Z,2.47
2023-01-01T11:50:53.636Z,2.00
2023-01-01T11:51:56.718Z,2.27
2023-01-01T11:53:16.747Z,2.47
2023-01-01T11:54:28.818Z,2.10
2023-01-01T11:55:45.794Z,2.70
2023-01-01T11:56:53.289Z,2.07
2023-01-01T11:57:55.089Z,1.90
2023-01-01T11:59:00.053Z,2.20
2023-01-01T12:00:04.851Z,2.03
2023-01-01T12:01:19.888Z,2.00
2023-01-01T12:02:50.508Z,1.90
2023-01-01T12:04:09.362Z,1.80
2023-01-01T12:05:22.557Z,2.67
2023-01-01T12:06:32.458Z,2.33
2023-01-01T12:07:38.880Z,2.57
2023-01-01T12:08:48.788Z,2.33
2023-01-01T12:10:05.038Z,2.00
2023-01-01T12:11:24.649Z,2.10
2023-01-01T12:12:32.351Z,2.27
2023-01-01T12:13:45.999Z,2.30
2023-01-01T12:15:13.245Z,2.47
2023-01-01T12:16:33.935Z,2.70
2023-01-01T12:17:43.916Z,2.30
2023-01-01T12:18:50.454Z,1.83
2023-01-01T12:20:01.212Z,2.27
2023-01-01T12:21:26.395Z,1.83
2023-01-01T12:22:28.547Z,2.60
2023-01-01T12:23:32.282Z,2.30
2023-01-01T12:24:35.359Z,2.03
2023-01-01T12:25:44.419Z,2.70
2023-01-01T12:27:10.791Z,2.10
2023-01-01T12:28:29.891Z,2.03
2023-01-01T12:30:11.002Z,2.20
2023-01-01T12:31:41.191Z,1.97
2023-01-01T12:33:11.998Z,2.40
2023-01-01T12:34:28.722Z,2.80
2023-01-01T12:35:33.496Z,2.07
2023-01-01T12:36:58.522Z,1.60
2023-01-01T12:38:29.312Z,2.30
2023-01-01T12:39:31.021Z,2.40
2023-01-01T12:41:02.115Z,2.10
2023-01-01T12:42:15.883Z,2.30
2023-01-01T12:43:48.761Z,1.60
2023-01-01T12:45:31.168Z,2.00
2023-01-01T12:46:38.726Z,2.33
2023-01-01T12:47:49.710Z,3.03
2023-01-01T12:49:06.151Z,2.20
2023-01-01T12:50:20.532Z,2.50
2023-01-01T12:51:28.235Z,2.30
2023-01-01T12:52:51.791Z,2.60
2023-01-01T12:54:23.212Z,2.10
2023-01-01T12:56:14.207Z,2.70
2023-01-01T12:58:01.034Z,2.00
2023-01-01T12:59:11.605Z,2.30
2023-01-01T13:00:19.670Z,2.30
2023-01-01T13:01:32.829Z,2.73
2023-01-01T13:02:39.464Z,2.30
2023-01-01T13:03:52.009Z,2.23
2023-01-01T13:04:59.637Z,2.60
2023-01-01T13:06:02.759Z,2.20
2023-01-01T13:07:11.961Z,2.00
2023-01-01T13:08:13.804Z,2.00
2023-01-01T13:09:20.003Z,2.63
2023-01-01T13:10:35.949Z,1.93
2023-01-01T13:11:44.985Z,2.63
2023-01-01T13:12:48.119Z,1.97
2023-01-01T13:13:50.024Z,3.60
2023-01-01T13:14:52.062Z,2.77
2023-01-01T13:15:55.882Z,2.67
2023-01-01T13:16:58.317Z,2.57
2023-01-01T13:18:00.618Z,2.30
2023-01-01T13:19:03.308Z,2.37
2023-01-01T13:20:23.703Z,2.77
2023-01-01T13:21:28.547Z,2.40
2023-01-01T13:22:39.177Z,2.57
2023-01-01T13:23:46.173Z,3.00
2023-01-01T13:25:19.760Z,2.30
2023-01-01T13:26:21.717Z,2.50
2023-01-01T13:28:03.599Z,2.83
2023-01-01T13:29:05.760Z,2.30
2023-01-01T13:30:45.437Z,2.07
2023-01-01T13:31:47.542Z,2.37
2023-01-01T13:33:25.075Z,1.80
2023-01-01T13:34:59.761Z,2.63
2023-01-01T13:36:07.690Z,2.10
2023-01-01T13:37:15.527Z,2.03
2023-01-01T13:38:46.393Z,2.47
2023-01-01T13:39:58.424Z,2.43
2023-01-01T13:41:00.395Z,2.90
2023-01-01T13:42:02.128Z,2.20
2023-01-01T13:43:18.799Z,2.90
2023-01-01T13:44:23.860Z,3.23
2023-01-01T13:46:09.793Z,2.27
2023-01-01T13:47:20.390Z,2.20
2023-01-01T13:48:28.285Z,2.87
2023-01-01T13:49:52.270Z,2.57
2023-01-01T13:51:40.432Z,2.53
2023-01-01T13:52:55.887Z,2.30
2023-01-01T13:54:17.309Z,2.17
2023-01-01T13:56:07.857Z,1.93
2023-01-01T13:57:28.836Z,3.43
2023-01-01T13:58:35.932Z,2.83
2023-01-01T13:59:59.268Z,3.70
2023-01-01T14:01:07.488Z,2.07
2023-01-01T14:02:15.593Z,2.67
2023-01-01T14:03:19.371Z,2.50
2023-01-01T14:04:47.369Z,2.27
2023-01-01T14:05:57.218Z,2.27
2023-01-01T14:07:40.881Z,2.10
2023-01-01T14:08:35.426Z,2.90
2023-01-01T14:09:37.297Z,2.67
2023-01-01T14:10:39.005Z,2.40
2023-01-01T14:11:41.343Z,3.20
2023-01-01T14:12:43.038Z,2.10
2023-01-01T14:13:44.803Z,2.60
2023-01-01T14:14:47.805Z,3.00
2023-01-01T14:16:09.103Z,2.60
2023-01-01T14:17:14.538Z,5.20
2023-01-01T14:18:19.138Z,2.90
2023-01-01T14:19:22.741Z,3.30
2023-01-01T14:20:54.980Z,2.90
2023-01-01T14:21:57.492Z,3.17
2023-01-01T14:23:06.436Z,2.40
2023-01-01T14:24:08.830Z,2.57
2023-01-01T14:25:16.257Z,2.30
2023-01-01T14:26:23.486Z,2.27
2023-01-01T14:27:28.160Z,2.57
2023-01-01T14:28:32.946Z,2.30
2023-01-01T14:29:35.909Z,2.60
2023-01-01T14:30:37.748Z,3.37
2023-01-01T14:31:44.470Z,3.77
2023-01-01T14:32:46.381Z,4.10
2023-01-01T14:33:48.779Z,4.50
2023-01-01T14:35:01.780Z,3.60
2023-01-01T14:36:06.422Z,4.87
2023-01-01T14:37:24.230Z,6.97
2023-01-01T14:38:30.096Z,5.93
2023-01-01T14:39:37.080Z,7.60
2023-01-01T14:40:39.047Z,7.03
2023-01-01T14:41:42.686Z,9.37
2023-01-01T14:42:49.108Z,5.70
2023-01-01T14:43:53.917Z,6.20
2023-01-01T14:44:55.869Z,6.23
2023-01-01T14:45:58.469Z,6.13
2023-01-01T14:47:01.619Z,5.90
2023-01-01T14:48:05.616Z,6.20
2023-01-01T14:49:15.790Z,6.20
2023-01-01T14:50:37.725Z,5.77
2023-01-01T14:51:44.922Z,7.70
2023-01-01T14:52:53.923Z,6.57
2023-01-01T14:54:00.538Z,6.37
2023-01-01T14:55:05.143Z,7.50
2023-01-01T14:56:07.685Z,6.07
2023-01-01T14:57:15.222Z,6.10
2023-01-01T14:58:23.953Z,5.10
2023-01-01T14:59:31.213Z,4.97